Floral Park, NY

10:14 AM EDT en Octubre 31, 2014 (GMT -0400)
La Guardia | Change Station
CLOSE
Current Station
Aeropuerto
Location: New York,
Altura: 30 ft
Estaciones meteorológicas cercanas

Alt 30 ft 40.78 °N, 73.88 °W | Updated 23 minutes ago

Nublado
Nublado
48 ° F
Sensación térmica 48 ° F
N
9
Viento Variable Viento desde NE
Gusts 16 mph

Hoy
Alta -- | Baja -- ° F
--% Posibilidad de precipitaciones
Ayer
Alta -- | Baja -- ° F
Precip. -- pul
7:23 AM 5:52 PM
Cuarto creciente, 55% visible
Presión 30.01 pul
Visibilidad 10.0 Millas
Nubes Nublado 5000 ft
Punto de rocío 32 ° F
Humedad 54%
Precipitaciones 0.00 pul
Espesor de la nieve No disponible.
UV 1 de una escala de 12
Polen .10 de una escala de 12
Calidad del aire No disponible.
Flu Activity No disponible.
METAR KLGA 311351Z 05008G14KT 10SM OVC050 09/00 A3001 RMK AO2 SLP162 T00890000

More Conditions Fewer Conditions

Presión 30.01 pul
Visibilidad 10.0 Millas
Nubes Nublado 5000 ft
Punto de rocío 32 ° F
Humedad 54%
Precipitaciones 0.00 pul
Espesor de la nieve No disponible.
UV 1 de una escala de 12
Polen .10 de una escala de 12
Calidad del aire No disponible.
Flu Activity No disponible.
METAR KLGA 311351Z 05008G14KT 10SM OVC050 09/00 A3001 RMK AO2 SLP162 T00890000

More Conditions Fewer Conditions

10-Day Weather Forecast

Almanac

Astronomía

Oct. 31, 2014 Salida Puesta
Hora real
Crepúsculo civil
Crepúsculo náutico
Crepúsculo astronómico
Luna
Horas de luz
Horas de luz
Tomorrow will be .
, % of the Moon is Illuminated

Extremos de hoy

Máximos del estado Bajos del estado

Community

WunderPhotos

Upload Photos

1,766,617 ¡fotos cargadas!

WunderBlogs® & News

Nearby

Calidad del aire

  Calidad del aire Índice AQ Contaminante
Not available.

Grosos de nieve

Estación Profundido Altura

Actividad de terremotos

Ciudad Distance Mag. Tiempo y dato
Magnitud mínima muestra es 2,5.

Temperaturas de aguas costeras

Lugar Temperatura

Estaciones meteorológicas cercanas